Terminal Aerodrome Forecast
Issued by NWS

Home | Current Version | Previous Version | Text Only | Print | Product List | Glossary On
Versions: 1 2 3 4 5 6 7 8 9 10 11 12 13 14 15 16 17 18 19 20 21 22 23 24 25 26 27 28 29 30 31 32 33 34 35 36
000
FTUS43 KLOT 230500
TAFORD
TAF
KORD 230540Z 2306/2412 20013KT P6SM BKN020 OVC040 WS020/21045KT
     FM231200 20013KT 6SM BR VCSH BKN018 OVC030
     FM231800 18014G20KT 6SM -SHRA BR SCT007 BKN015 OVC025
     FM232200 14012G20KT 2SM RA BR OVC006
     FM240300 15010KT 2SM RA BR OVC004
     FM240600 18010KT 1 1/2SM -RA BR OVC004=

USA.gov is the U.S. government's official web portal to all federal, state and local government web resources and services.